sensor_id;sensor_type;location;lat;lon;timestamp;P1;durP1;ratioP1;P2;durP2;ratioP2
85040;SDS011;75367;52.010;4.358;2024-03-08T00:01:35;28.35;;;16.92;;
85040;SDS011;75367;52.010;4.358;2024-03-08T00:04:00;28.25;;;18.17;;
85040;SDS011;75367;52.010;4.358;2024-03-08T00:06:26;24.15;;;14.68;;
85040;SDS011;75367;52.010;4.358;2024-03-08T00:08:51;26.85;;;16.55;;
85040;SDS011;75367;52.010;4.358;2024-03-08T00:11:17;28.20;;;18.65;;
85040;SDS011;75367;52.010;4.358;2024-03-08T00:13:42;29.05;;;15.82;;
85040;SDS011;75367;52.010;4.358;2024-03-08T00:16:07;28.05;;;17.17;;
85040;SDS011;75367;52.010;4.358;2024-03-08T00:18:34;27.52;;;17.30;;
85040;SDS011;75367;52.010;4.358;2024-03-08T00:20:59;26.40;;;16.85;;
85040;SDS011;75367;52.010;4.358;2024-03-08T00:23:25;28.10;;;20.15;;
85040;SDS011;75367;52.010;4.358;2024-03-08T00:25:50;26.45;;;17.10;;
85040;SDS011;75367;52.010;4.358;2024-03-08T00:28:16;25.75;;;17.27;;
85040;SDS011;75367;52.010;4.358;2024-03-08T00:30:43;29.50;;;18.45;;
85040;SDS011;75367;52.010;4.358;2024-03-08T00:33:10;26.77;;;14.73;;
85040;SDS011;75367;52.010;4.358;2024-03-08T00:35:35;25.83;;;17.60;;
85040;SDS011;75367;52.010;4.358;2024-03-08T00:38:01;24.10;;;16.65;;
85040;SDS011;75367;52.010;4.358;2024-03-08T00:40:26;25.20;;;17.23;;
85040;SDS011;75367;52.010;4.358;2024-03-08T00:42:52;28.13;;;17.67;;
85040;SDS011;75367;52.010;4.358;2024-03-08T00:45:18;24.67;;;16.33;;
85040;SDS011;75367;52.010;4.358;2024-03-08T00:47:43;26.42;;;16.67;;
85040;SDS011;75367;52.010;4.358;2024-03-08T00:50:09;26.17;;;17.52;;
85040;SDS011;75367;52.010;4.358;2024-03-08T00:52:35;28.08;;;18.33;;
85040;SDS011;75367;52.010;4.358;2024-03-08T00:55:01;25.77;;;17.15;;
85040;SDS011;75367;52.010;4.358;2024-03-08T00:57:26;25.42;;;16.58;;
85040;SDS011;75367;52.010;4.358;2024-03-08T00:59:52;28.65;;;19.00;;
85040;SDS011;75367;52.010;4.358;2024-03-08T01:02:19;25.23;;;16.52;;
85040;SDS011;75367;52.010;4.358;2024-03-08T01:04:46;26.00;;;17.20;;
85040;SDS011;75367;52.010;4.358;2024-03-08T01:07:12;27.33;;;17.67;;
85040;SDS011;75367;52.010;4.358;2024-03-08T01:09:37;25.17;;;17.00;;
85040;SDS011;75367;52.010;4.358;2024-03-08T01:12:03;28.02;;;17.38;;
85040;SDS011;75367;52.010;4.358;2024-03-08T01:14:28;28.15;;;18.27;;
85040;SDS011;75367;52.010;4.358;2024-03-08T01:16:55;26.02;;;14.82;;
85040;SDS011;75367;52.010;4.358;2024-03-08T01:19:20;25.88;;;17.58;;
85040;SDS011;75367;52.010;4.358;2024-03-08T01:21:46;25.15;;;16.95;;
85040;SDS011;75367;52.010;4.358;2024-03-08T01:24:11;26.60;;;16.80;;
85040;SDS011;75367;52.010;4.358;2024-03-08T01:26:36;27.55;;;16.92;;
85040;SDS011;75367;52.010;4.358;2024-03-08T01:29:02;26.63;;;15.98;;
85040;SDS011;75367;52.010;4.358;2024-03-08T01:31:31;28.00;;;18.92;;
85040;SDS011;75367;52.010;4.358;2024-03-08T01:33:57;26.95;;;18.45;;
85040;SDS011;75367;52.010;4.358;2024-03-08T01:36:23;25.58;;;16.73;;
85040;SDS011;75367;52.010;4.358;2024-03-08T01:38:49;27.33;;;16.67;;
85040;SDS011;75367;52.010;4.358;2024-03-08T01:41:15;23.60;;;15.80;;
85040;SDS011;75367;52.010;4.358;2024-03-08T01:43:42;28.13;;;17.15;;
85040;SDS011;75367;52.010;4.358;2024-03-08T01:46:08;25.85;;;17.42;;
85040;SDS011;75367;52.010;4.358;2024-03-08T01:48:34;26.35;;;16.70;;
85040;SDS011;75367;52.010;4.358;2024-03-08T01:51:00;24.27;;;16.92;;
85040;SDS011;75367;52.010;4.358;2024-03-08T01:53:26;24.88;;;17.27;;
85040;SDS011;75367;52.010;4.358;2024-03-08T01:55:54;29.42;;;17.70;;
85040;SDS011;75367;52.010;4.358;2024-03-08T01:58:22;21.92;;;15.48;;
85040;SDS011;75367;52.010;4.358;2024-03-08T02:00:48;25.95;;;17.38;;
85040;SDS011;75367;52.010;4.358;2024-03-08T02:03:15;25.33;;;16.48;;
85040;SDS011;75367;52.010;4.358;2024-03-08T02:05:41;24.73;;;16.92;;
85040;SDS011;75367;52.010;4.358;2024-03-08T02:08:06;25.63;;;17.63;;
85040;SDS011;75367;52.010;4.358;2024-03-08T02:10:34;27.60;;;18.05;;
85040;SDS011;75367;52.010;4.358;2024-03-08T02:13:02;23.13;;;15.25;;
85040;SDS011;75367;52.010;4.358;2024-03-08T02:18:32;26.42;;;18.90;;
85040;SDS011;75367;52.010;4.358;2024-03-08T02:21:00;24.20;;;16.98;;
85040;SDS011;75367;52.010;4.358;2024-03-08T02:23:27;25.92;;;15.77;;
85040;SDS011;75367;52.010;4.358;2024-03-08T02:25:54;24.85;;;17.27;;
85040;SDS011;75367;52.010;4.358;2024-03-08T02:28:21;27.13;;;17.33;;
85040;SDS011;75367;52.010;4.358;2024-03-08T02:30:47;23.88;;;17.80;;
85040;SDS011;75367;52.010;4.358;2024-03-08T02:33:16;23.20;;;16.23;;
85040;SDS011;75367;52.010;4.358;2024-03-08T02:35:43;24.42;;;16.58;;
85040;SDS011;75367;52.010;4.358;2024-03-08T02:38:15;26.45;;;16.25;;
85040;SDS011;75367;52.010;4.358;2024-03-08T02:40:45;25.88;;;17.17;;
85040;SDS011;75367;52.010;4.358;2024-03-08T02:43:11;26.27;;;15.88;;
85040;SDS011;75367;52.010;4.358;2024-03-08T02:45:37;24.20;;;16.25;;
85040;SDS011;75367;52.010;4.358;2024-03-08T02:48:03;23.80;;;16.42;;
85040;SDS011;75367;52.010;4.358;2024-03-08T02:50:31;25.60;;;17.63;;
85040;SDS011;75367;52.010;4.358;2024-03-08T02:52:57;22.35;;;16.23;;
85040;SDS011;75367;52.010;4.358;2024-03-08T02:55:22;25.40;;;17.83;;
85040;SDS011;75367;52.010;4.358;2024-03-08T02:57:50;25.75;;;18.17;;
85040;SDS011;75367;52.010;4.358;2024-03-08T03:00:16;23.55;;;16.20;;
85040;SDS011;75367;52.010;4.358;2024-03-08T03:02:44;24.60;;;17.40;;
85040;SDS011;75367;52.010;4.358;2024-03-08T03:05:10;25.40;;;16.92;;
85040;SDS011;75367;52.010;4.358;2024-03-08T03:07:36;24.98;;;18.33;;
85040;SDS011;75367;52.010;4.358;2024-03-08T03:10:02;25.63;;;16.40;;
85040;SDS011;75367;52.010;4.358;2024-03-08T03:12:28;24.38;;;16.85;;
85040;SDS011;75367;52.010;4.358;2024-03-08T03:14:54;24.83;;;19.23;;
85040;SDS011;75367;52.010;4.358;2024-03-08T03:17:21;24.42;;;17.00;;
85040;SDS011;75367;52.010;4.358;2024-03-08T03:19:50;25.80;;;17.23;;
85040;SDS011;75367;52.010;4.358;2024-03-08T03:22:17;22.42;;;15.95;;
85040;SDS011;75367;52.010;4.358;2024-03-08T03:24:43;24.10;;;17.35;;
85040;SDS011;75367;52.010;4.358;2024-03-08T03:27:09;28.50;;;17.13;;
85040;SDS011;75367;52.010;4.358;2024-03-08T03:29:40;23.48;;;17.88;;
85040;SDS011;75367;52.010;4.358;2024-03-08T03:32:10;24.58;;;17.00;;
85040;SDS011;75367;52.010;4.358;2024-03-08T03:34:37;22.98;;;16.38;;
85040;SDS011;75367;52.010;4.358;2024-03-08T03:37:02;24.10;;;19.33;;
85040;SDS011;75367;52.010;4.358;2024-03-08T03:39:28;27.88;;;17.95;;
85040;SDS011;75367;52.010;4.358;2024-03-08T03:41:57;23.25;;;17.35;;
85040;SDS011;75367;52.010;4.358;2024-03-08T03:44:23;24.67;;;18.02;;
85040;SDS011;75367;52.010;4.358;2024-03-08T03:46:49;25.30;;;17.50;;
85040;SDS011;75367;52.010;4.358;2024-03-08T03:49:15;24.45;;;17.95;;
85040;SDS011;75367;52.010;4.358;2024-03-08T03:51:42;25.67;;;18.20;;
85040;SDS011;75367;52.010;4.358;2024-03-08T03:54:07;25.35;;;17.63;;
85040;SDS011;75367;52.010;4.358;2024-03-08T03:56:33;24.52;;;18.30;;
85040;SDS011;75367;52.010;4.358;2024-03-08T03:58:58;24.52;;;17.38;;
85040;SDS011;75367;52.010;4.358;2024-03-08T04:01:23;25.95;;;17.25;;
85040;SDS011;75367;52.010;4.358;2024-03-08T04:03:49;21.50;;;15.68;;
85040;SDS011;75367;52.010;4.358;2024-03-08T04:06:14;23.40;;;16.52;;
85040;SDS011;75367;52.010;4.358;2024-03-08T04:08:40;26.45;;;18.02;;
85040;SDS011;75367;52.010;4.358;2024-03-08T04:11:06;22.73;;;15.95;;
85040;SDS011;75367;52.010;4.358;2024-03-08T04:13:33;25.73;;;18.25;;
85040;SDS011;75367;52.010;4.358;2024-03-08T04:15:59;25.48;;;17.35;;
85040;SDS011;75367;52.010;4.358;2024-03-08T04:18:24;24.35;;;18.30;;
85040;SDS011;75367;52.010;4.358;2024-03-08T04:20:50;25.75;;;18.63;;
85040;SDS011;75367;52.010;4.358;2024-03-08T04:23:15;23.05;;;16.98;;
85040;SDS011;75367;52.010;4.358;2024-03-08T04:25:42;25.48;;;20.85;;
85040;SDS011;75367;52.010;4.358;2024-03-08T04:28:08;25.73;;;21.13;;
85040;SDS011;75367;52.010;4.358;2024-03-08T04:30:37;27.95;;;19.73;;
85040;SDS011;75367;52.010;4.358;2024-03-08T04:33:03;26.50;;;20.52;;
85040;SDS011;75367;52.010;4.358;2024-03-08T04:35:28;24.52;;;19.13;;
85040;SDS011;75367;52.010;4.358;2024-03-08T04:37:54;22.35;;;15.50;;
85040;SDS011;75367;52.010;4.358;2024-03-08T04:40:19;22.42;;;16.70;;
85040;SDS011;75367;52.010;4.358;2024-03-08T04:42:45;25.17;;;18.23;;
85040;SDS011;75367;52.010;4.358;2024-03-08T04:45:10;26.83;;;19.85;;
85040;SDS011;75367;52.010;4.358;2024-03-08T04:47:36;24.35;;;18.52;;
85040;SDS011;75367;52.010;4.358;2024-03-08T04:50:01;26.65;;;19.52;;
85040;SDS011;75367;52.010;4.358;2024-03-08T04:52:27;27.63;;;19.48;;
85040;SDS011;75367;52.010;4.358;2024-03-08T04:54:53;24.98;;;18.33;;
85040;SDS011;75367;52.010;4.358;2024-03-08T04:57:18;22.00;;;18.05;;
85040;SDS011;75367;52.010;4.358;2024-03-08T04:59:44;27.83;;;21.20;;
85040;SDS011;75367;52.010;4.358;2024-03-08T05:02:09;26.08;;;19.70;;
85040;SDS011;75367;52.010;4.358;2024-03-08T05:04:35;25.63;;;18.35;;
85040;SDS011;75367;52.010;4.358;2024-03-08T05:07:01;23.92;;;20.23;;
85040;SDS011;75367;52.010;4.358;2024-03-08T05:09:27;23.20;;;18.80;;
85040;SDS011;75367;52.010;4.358;2024-03-08T05:11:54;28.67;;;22.15;;
85040;SDS011;75367;52.010;4.358;2024-03-08T05:14:19;26.83;;;21.02;;
85040;SDS011;75367;52.010;4.358;2024-03-08T05:16:45;24.17;;;19.52;;
85040;SDS011;75367;52.010;4.358;2024-03-08T05:19:17;26.40;;;20.20;;
85040;SDS011;75367;52.010;4.358;2024-03-08T05:21:44;26.60;;;20.52;;
85040;SDS011;75367;52.010;4.358;2024-03-08T05:24:10;27.13;;;22.90;;
85040;SDS011;75367;52.010;4.358;2024-03-08T05:26:36;25.65;;;21.45;;
85040;SDS011;75367;52.010;4.358;2024-03-08T05:29:02;23.33;;;19.40;;
85040;SDS011;75367;52.010;4.358;2024-03-08T05:31:28;25.05;;;19.83;;
85040;SDS011;75367;52.010;4.358;2024-03-08T05:33:54;24.73;;;20.90;;
85040;SDS011;75367;52.010;4.358;2024-03-08T05:36:20;25.38;;;20.05;;
85040;SDS011;75367;52.010;4.358;2024-03-08T05:38:46;26.08;;;19.25;;
85040;SDS011;75367;52.010;4.358;2024-03-08T05:41:12;26.38;;;20.63;;
85040;SDS011;75367;52.010;4.358;2024-03-08T05:43:37;26.30;;;20.15;;
85040;SDS011;75367;52.010;4.358;2024-03-08T05:46:03;25.70;;;20.95;;
85040;SDS011;75367;52.010;4.358;2024-03-08T05:48:32;27.15;;;19.60;;
85040;SDS011;75367;52.010;4.358;2024-03-08T05:50:58;28.27;;;23.75;;
85040;SDS011;75367;52.010;4.358;2024-03-08T05:53:24;25.23;;;19.35;;
85040;SDS011;75367;52.010;4.358;2024-03-08T05:55:50;26.73;;;19.98;;
85040;SDS011;75367;52.010;4.358;2024-03-08T05:58:15;29.17;;;20.65;;
85040;SDS011;75367;52.010;4.358;2024-03-08T06:00:40;24.95;;;21.08;;
85040;SDS011;75367;52.010;4.358;2024-03-08T06:03:06;24.85;;;17.90;;
85040;SDS011;75367;52.010;4.358;2024-03-08T06:05:32;25.70;;;18.80;;
85040;SDS011;75367;52.010;4.358;2024-03-08T06:07:58;26.92;;;22.38;;
85040;SDS011;75367;52.010;4.358;2024-03-08T06:10:24;28.85;;;21.50;;
85040;SDS011;75367;52.010;4.358;2024-03-08T06:12:49;25.27;;;21.25;;
85040;SDS011;75367;52.010;4.358;2024-03-08T06:15:15;25.55;;;18.90;;
85040;SDS011;75367;52.010;4.358;2024-03-08T06:17:41;27.13;;;21.45;;
85040;SDS011;75367;52.010;4.358;2024-03-08T06:20:07;24.90;;;19.55;;
85040;SDS011;75367;52.010;4.358;2024-03-08T06:22:39;25.63;;;20.73;;
85040;SDS011;75367;52.010;4.358;2024-03-08T06:25:07;26.60;;;19.42;;
85040;SDS011;75367;52.010;4.358;2024-03-08T06:27:33;28.05;;;16.95;;
85040;SDS011;75367;52.010;4.358;2024-03-08T06:29:59;27.17;;;21.55;;
85040;SDS011;75367;52.010;4.358;2024-03-08T06:32:25;28.10;;;21.55;;
85040;SDS011;75367;52.010;4.358;2024-03-08T06:34:50;25.20;;;19.55;;
85040;SDS011;75367;52.010;4.358;2024-03-08T06:37:16;25.83;;;21.05;;
85040;SDS011;75367;52.010;4.358;2024-03-08T06:39:47;29.27;;;23.63;;
85040;SDS011;75367;52.010;4.358;2024-03-08T06:42:13;25.55;;;18.88;;
85040;SDS011;75367;52.010;4.358;2024-03-08T06:44:38;29.35;;;20.27;;
85040;SDS011;75367;52.010;4.358;2024-03-08T06:47:10;26.98;;;20.50;;
85040;SDS011;75367;52.010;4.358;2024-03-08T06:49:36;26.58;;;21.20;;
85040;SDS011;75367;52.010;4.358;2024-03-08T06:52:01;29.00;;;24.52;;
85040;SDS011;75367;52.010;4.358;2024-03-08T06:54:26;26.42;;;21.63;;
85040;SDS011;75367;52.010;4.358;2024-03-08T06:56:52;28.77;;;21.65;;
85040;SDS011;75367;52.010;4.358;2024-03-08T06:59:17;26.00;;;20.45;;
85040;SDS011;75367;52.010;4.358;2024-03-08T07:01:43;28.38;;;23.15;;
85040;SDS011;75367;52.010;4.358;2024-03-08T07:04:08;24.92;;;19.55;;
85040;SDS011;75367;52.010;4.358;2024-03-08T07:06:34;27.50;;;19.75;;
85040;SDS011;75367;52.010;4.358;2024-03-08T07:08:59;26.42;;;19.55;;
85040;SDS011;75367;52.010;4.358;2024-03-08T07:11:25;28.33;;;21.90;;
85040;SDS011;75367;52.010;4.358;2024-03-08T07:13:50;27.48;;;21.08;;
85040;SDS011;75367;52.010;4.358;2024-03-08T07:16:16;24.85;;;18.05;;
85040;SDS011;75367;52.010;4.358;2024-03-08T07:18:41;26.20;;;18.73;;
85040;SDS011;75367;52.010;4.358;2024-03-08T07:21:08;23.52;;;19.55;;
85040;SDS011;75367;52.010;4.358;2024-03-08T07:23:35;25.70;;;19.90;;
85040;SDS011;75367;52.010;4.358;2024-03-08T07:26:27;25.48;;;20.20;;
85040;SDS011;75367;52.010;4.358;2024-03-08T07:28:53;25.42;;;18.33;;
85040;SDS011;75367;52.010;4.358;2024-03-08T07:31:22;27.85;;;20.20;;
85040;SDS011;75367;52.010;4.358;2024-03-08T07:34:02;28.23;;;24.40;;
85040;SDS011;75367;52.010;4.358;2024-03-08T07:36:28;23.63;;;18.77;;
85040;SDS011;75367;52.010;4.358;2024-03-08T07:38:53;24.63;;;17.73;;
85040;SDS011;75367;52.010;4.358;2024-03-08T07:41:19;25.83;;;21.52;;
85040;SDS011;75367;52.010;4.358;2024-03-08T07:43:45;27.95;;;18.38;;
85040;SDS011;75367;52.010;4.358;2024-03-08T07:46:10;24.42;;;20.27;;
85040;SDS011;75367;52.010;4.358;2024-03-08T07:48:36;25.25;;;19.60;;
85040;SDS011;75367;52.010;4.358;2024-03-08T07:51:02;26.33;;;20.77;;
85040;SDS011;75367;52.010;4.358;2024-03-08T07:53:30;28.33;;;22.67;;
85040;SDS011;75367;52.010;4.358;2024-03-08T07:55:56;24.15;;;19.38;;
85040;SDS011;75367;52.010;4.358;2024-03-08T07:58:21;25.00;;;18.20;;
85040;SDS011;75367;52.010;4.358;2024-03-08T08:00:46;24.48;;;19.75;;
85040;SDS011;75367;52.010;4.358;2024-03-08T08:03:12;26.13;;;19.25;;
85040;SDS011;75367;52.010;4.358;2024-03-08T08:05:37;23.80;;;20.30;;
85040;SDS011;75367;52.010;4.358;2024-03-08T08:08:04;26.95;;;19.48;;
85040;SDS011;75367;52.010;4.358;2024-03-08T08:10:32;24.70;;;20.40;;
85040;SDS011;75367;52.010;4.358;2024-03-08T08:12:58;25.10;;;19.38;;
85040;SDS011;75367;52.010;4.358;2024-03-08T08:15:23;26.45;;;21.63;;
85040;SDS011;75367;52.010;4.358;2024-03-08T08:17:53;26.77;;;20.67;;
85040;SDS011;75367;52.010;4.358;2024-03-08T08:20:18;25.75;;;19.20;;
85040;SDS011;75367;52.010;4.358;2024-03-08T08:22:44;26.65;;;21.00;;
85040;SDS011;75367;52.010;4.358;2024-03-08T08:25:09;24.17;;;19.25;;
85040;SDS011;75367;52.010;4.358;2024-03-08T08:27:38;24.67;;;20.27;;
85040;SDS011;75367;52.010;4.358;2024-03-08T08:30:05;25.67;;;20.35;;
85040;SDS011;75367;52.010;4.358;2024-03-08T08:32:33;27.58;;;18.13;;
85040;SDS011;75367;52.010;4.358;2024-03-08T08:35:02;23.13;;;19.75;;
85040;SDS011;75367;52.010;4.358;2024-03-08T08:37:29;25.85;;;19.35;;
85040;SDS011;75367;52.010;4.358;2024-03-08T08:39:56;25.30;;;21.08;;
85040;SDS011;75367;52.010;4.358;2024-03-08T08:42:21;24.75;;;19.65;;
85040;SDS011;75367;52.010;4.358;2024-03-08T08:44:47;25.27;;;20.05;;
85040;SDS011;75367;52.010;4.358;2024-03-08T08:47:14;24.15;;;20.83;;
85040;SDS011;75367;52.010;4.358;2024-03-08T08:49:43;23.73;;;19.95;;
85040;SDS011;75367;52.010;4.358;2024-03-08T08:52:11;24.13;;;20.98;;
85040;SDS011;75367;52.010;4.358;2024-03-08T08:54:36;23.40;;;18.27;;
85040;SDS011;75367;52.010;4.358;2024-03-08T08:57:01;24.42;;;20.58;;
85040;SDS011;75367;52.010;4.358;2024-03-08T08:59:32;25.55;;;21.33;;
85040;SDS011;75367;52.010;4.358;2024-03-08T09:01:58;22.85;;;18.05;;
85040;SDS011;75367;52.010;4.358;2024-03-08T09:04:23;23.40;;;20.60;;
85040;SDS011;75367;52.010;4.358;2024-03-08T09:06:49;25.55;;;22.42;;
85040;SDS011;75367;52.010;4.358;2024-03-08T09:09:14;25.55;;;21.17;;
85040;SDS011;75367;52.010;4.358;2024-03-08T09:11:41;24.85;;;19.60;;
85040;SDS011;75367;52.010;4.358;2024-03-08T09:14:07;23.65;;;17.58;;
85040;SDS011;75367;52.010;4.358;2024-03-08T09:16:34;24.98;;;18.52;;
85040;SDS011;75367;52.010;4.358;2024-03-08T09:19:00;23.45;;;17.55;;
85040;SDS011;75367;52.010;4.358;2024-03-08T09:21:25;26.63;;;21.90;;
85040;SDS011;75367;52.010;4.358;2024-03-08T09:23:52;23.55;;;19.67;;
85040;SDS011;75367;52.010;4.358;2024-03-08T09:26:18;24.63;;;20.92;;
85040;SDS011;75367;52.010;4.358;2024-03-08T09:28:43;26.00;;;20.13;;
85040;SDS011;75367;52.010;4.358;2024-03-08T09:31:10;25.45;;;21.15;;
85040;SDS011;75367;52.010;4.358;2024-03-08T09:33:36;23.83;;;18.30;;
85040;SDS011;75367;52.010;4.358;2024-03-08T09:36:02;25.05;;;20.02;;
85040;SDS011;75367;52.010;4.358;2024-03-08T09:38:29;26.08;;;19.58;;
85040;SDS011;75367;52.010;4.358;2024-03-08T09:40:54;22.75;;;18.67;;
85040;SDS011;75367;52.010;4.358;2024-03-08T09:43:21;25.73;;;20.27;;
85040;SDS011;75367;52.010;4.358;2024-03-08T09:45:49;22.27;;;16.65;;
85040;SDS011;75367;52.010;4.358;2024-03-08T09:48:14;25.60;;;20.58;;
85040;SDS011;75367;52.010;4.358;2024-03-08T09:50:42;24.35;;;20.92;;
85040;SDS011;75367;52.010;4.358;2024-03-08T09:53:07;23.02;;;20.38;;
85040;SDS011;75367;52.010;4.358;2024-03-08T09:55:35;25.60;;;20.10;;
85040;SDS011;75367;52.010;4.358;2024-03-08T09:58:02;25.00;;;20.05;;
85040;SDS011;75367;52.010;4.358;2024-03-08T10:00:49;26.27;;;20.05;;
85040;SDS011;75367;52.010;4.358;2024-03-08T10:03:15;23.65;;;19.83;;
85040;SDS011;75367;52.010;4.358;2024-03-08T10:05:41;25.20;;;22.45;;
85040;SDS011;75367;52.010;4.358;2024-03-08T10:08:06;26.08;;;20.58;;
85040;SDS011;75367;52.010;4.358;2024-03-08T10:10:35;25.73;;;18.70;;
85040;SDS011;75367;52.010;4.358;2024-03-08T10:13:00;23.17;;;19.83;;
85040;SDS011;75367;52.010;4.358;2024-03-08T10:15:29;25.20;;;20.98;;
85040;SDS011;75367;52.010;4.358;2024-03-08T10:17:57;22.92;;;16.63;;
85040;SDS011;75367;52.010;4.358;2024-03-08T10:20:23;22.25;;;16.02;;
85040;SDS011;75367;52.010;4.358;2024-03-08T10:22:49;22.77;;;19.90;;
85040;SDS011;75367;52.010;4.358;2024-03-08T10:25:14;24.58;;;19.15;;
85040;SDS011;75367;52.010;4.358;2024-03-08T10:27:40;24.45;;;19.60;;
85040;SDS011;75367;52.010;4.358;2024-03-08T10:30:17;23.88;;;19.20;;
85040;SDS011;75367;52.010;4.358;2024-03-08T10:32:46;22.80;;;15.57;;
85040;SDS011;75367;52.010;4.358;2024-03-08T10:35:12;23.25;;;17.95;;
85040;SDS011;75367;52.010;4.358;2024-03-08T10:37:44;23.95;;;18.30;;
85040;SDS011;75367;52.010;4.358;2024-03-08T10:40:13;23.80;;;19.98;;
85040;SDS011;75367;52.010;4.358;2024-03-08T10:42:55;24.60;;;17.55;;
85040;SDS011;75367;52.010;4.358;2024-03-08T10:45:37;23.05;;;17.83;;
85040;SDS011;75367;52.010;4.358;2024-03-08T10:50:57;21.08;;;15.50;;
85040;SDS011;75367;52.010;4.358;2024-03-08T10:53:24;21.73;;;17.92;;
85040;SDS011;75367;52.010;4.358;2024-03-08T10:55:52;22.98;;;15.90;;
85040;SDS011;75367;52.010;4.358;2024-03-08T10:58:19;22.33;;;16.73;;
85040;SDS011;75367;52.010;4.358;2024-03-08T11:00:46;22.38;;;19.35;;
85040;SDS011;75367;52.010;4.358;2024-03-08T11:06:05;20.70;;;16.67;;
85040;SDS011;75367;52.010;4.358;2024-03-08T11:08:36;21.58;;;13.52;;
85040;SDS011;75367;52.010;4.358;2024-03-08T11:11:04;20.83;;;15.20;;
85040;SDS011;75367;52.010;4.358;2024-03-08T11:13:42;21.58;;;17.30;;
85040;SDS011;75367;52.010;4.358;2024-03-08T11:16:11;22.63;;;15.77;;
85040;SDS011;75367;52.010;4.358;2024-03-08T11:18:37;21.20;;;17.63;;
85040;SDS011;75367;52.010;4.358;2024-03-08T11:21:03;22.15;;;17.60;;
85040;SDS011;75367;52.010;4.358;2024-03-08T11:23:37;18.27;;;13.70;;
85040;SDS011;75367;52.010;4.358;2024-03-08T11:26:03;23.40;;;18.15;;
85040;SDS011;75367;52.010;4.358;2024-03-08T11:28:32;18.58;;;16.35;;
85040;SDS011;75367;52.010;4.358;2024-03-08T11:33:26;18.10;;;15.32;;
85040;SDS011;75367;52.010;4.358;2024-03-08T11:36:02;21.33;;;18.40;;
85040;SDS011;75367;52.010;4.358;2024-03-08T11:38:41;19.00;;;14.20;;
85040;SDS011;75367;52.010;4.358;2024-03-08T11:41:09;19.73;;;17.17;;
85040;SDS011;75367;52.010;4.358;2024-03-08T11:43:37;19.17;;;15.52;;
85040;SDS011;75367;52.010;4.358;2024-03-08T11:46:10;22.77;;;15.57;;
85040;SDS011;75367;52.010;4.358;2024-03-08T11:48:37;18.52;;;14.20;;
85040;SDS011;75367;52.010;4.358;2024-03-08T11:51:04;21.00;;;17.33;;
85040;SDS011;75367;52.010;4.358;2024-03-08T11:53:30;21.70;;;17.92;;
85040;SDS011;75367;52.010;4.358;2024-03-08T11:56:05;19.85;;;17.55;;
85040;SDS011;75367;52.010;4.358;2024-03-08T11:58:34;19.05;;;17.15;;
85040;SDS011;75367;52.010;4.358;2024-03-08T12:01:12;16.77;;;12.05;;
85040;SDS011;75367;52.010;4.358;2024-03-08T12:03:41;21.17;;;17.45;;
85040;SDS011;75367;52.010;4.358;2024-03-08T12:06:09;17.90;;;12.55;;
85040;SDS011;75367;52.010;4.358;2024-03-08T12:08:35;21.58;;;18.27;;
85040;SDS011;75367;52.010;4.358;2024-03-08T12:11:02;21.50;;;17.92;;
85040;SDS011;75367;52.010;4.358;2024-03-08T12:13:29;21.75;;;16.23;;
85040;SDS011;75367;52.010;4.358;2024-03-08T12:15:57;21.50;;;16.35;;
85040;SDS011;75367;52.010;4.358;2024-03-08T12:18:24;22.33;;;13.70;;
85040;SDS011;75367;52.010;4.358;2024-03-08T12:20:51;19.80;;;17.52;;
85040;SDS011;75367;52.010;4.358;2024-03-08T12:23:16;21.08;;;18.85;;
85040;SDS011;75367;52.010;4.358;2024-03-08T12:25:42;18.80;;;13.00;;
85040;SDS011;75367;52.010;4.358;2024-03-08T12:28:08;21.05;;;15.15;;
85040;SDS011;75367;52.010;4.358;2024-03-08T12:30:47;20.92;;;16.20;;
85040;SDS011;75367;52.010;4.358;2024-03-08T12:33:13;20.58;;;15.13;;
85040;SDS011;75367;52.010;4.358;2024-03-08T12:35:39;20.42;;;14.73;;
85040;SDS011;75367;52.010;4.358;2024-03-08T12:38:05;21.90;;;19.70;;
85040;SDS011;75367;52.010;4.358;2024-03-08T12:40:32;18.77;;;13.82;;
85040;SDS011;75367;52.010;4.358;2024-03-08T12:42:59;20.55;;;14.82;;
85040;SDS011;75367;52.010;4.358;2024-03-08T12:45:25;18.15;;;14.30;;
85040;SDS011;75367;52.010;4.358;2024-03-08T12:47:51;18.98;;;15.32;;
85040;SDS011;75367;52.010;4.358;2024-03-08T12:50:18;19.25;;;14.18;;
85040;SDS011;75367;52.010;4.358;2024-03-08T12:52:44;20.98;;;14.38;;
85040;SDS011;75367;52.010;4.358;2024-03-08T12:55:09;19.75;;;13.70;;
85040;SDS011;75367;52.010;4.358;2024-03-08T12:57:35;19.42;;;16.17;;
85040;SDS011;75367;52.010;4.358;2024-03-08T13:00:02;17.75;;;12.48;;
85040;SDS011;75367;52.010;4.358;2024-03-08T13:02:29;17.50;;;13.93;;
85040;SDS011;75367;52.010;4.358;2024-03-08T13:04:56;17.35;;;12.80;;
85040;SDS011;75367;52.010;4.358;2024-03-08T13:07:25;22.98;;;16.55;;
85040;SDS011;75367;52.010;4.358;2024-03-08T13:09:52;18.05;;;12.55;;
85040;SDS011;75367;52.010;4.358;2024-03-08T13:12:19;19.00;;;13.98;;
85040;SDS011;75367;52.010;4.358;2024-03-08T13:14:45;20.40;;;15.45;;
85040;SDS011;75367;52.010;4.358;2024-03-08T13:17:11;15.02;;;9.20;;
85040;SDS011;75367;52.010;4.358;2024-03-08T13:19:37;21.00;;;15.75;;
85040;SDS011;75367;52.010;4.358;2024-03-08T13:22:03;19.90;;;14.32;;
85040;SDS011;75367;52.010;4.358;2024-03-08T13:24:29;18.90;;;13.77;;
85040;SDS011;75367;52.010;4.358;2024-03-08T13:26:55;7.72;;;5.35;;
85040;SDS011;75367;52.010;4.358;2024-03-08T13:29:20;12.20;;;8.48;;
85040;SDS011;75367;52.010;4.358;2024-03-08T13:31:46;16.10;;;9.32;;
85040;SDS011;75367;52.010;4.358;2024-03-08T13:34:16;17.48;;;11.98;;
85040;SDS011;75367;52.010;4.358;2024-03-08T13:36:42;19.25;;;14.38;;
85040;SDS011;75367;52.010;4.358;2024-03-08T13:39:09;19.02;;;15.88;;
85040;SDS011;75367;52.010;4.358;2024-03-08T13:41:45;17.23;;;11.85;;
85040;SDS011;75367;52.010;4.358;2024-03-08T13:44:11;17.08;;;12.50;;
85040;SDS011;75367;52.010;4.358;2024-03-08T13:46:37;14.52;;;10.75;;
85040;SDS011;75367;52.010;4.358;2024-03-08T13:49:03;17.73;;;12.27;;
85040;SDS011;75367;52.010;4.358;2024-03-08T13:51:35;16.30;;;10.55;;
85040;SDS011;75367;52.010;4.358;2024-03-08T13:54:01;19.25;;;14.75;;
85040;SDS011;75367;52.010;4.358;2024-03-08T13:56:27;21.13;;;15.93;;
85040;SDS011;75367;52.010;4.358;2024-03-08T13:58:54;19.58;;;16.27;;
85040;SDS011;75367;52.010;4.358;2024-03-08T14:01:22;19.77;;;15.27;;
85040;SDS011;75367;52.010;4.358;2024-03-08T14:03:47;19.83;;;16.73;;
85040;SDS011;75367;52.010;4.358;2024-03-08T14:06:13;19.65;;;14.95;;
85040;SDS011;75367;52.010;4.358;2024-03-08T14:08:38;20.27;;;11.73;;
85040;SDS011;75367;52.010;4.358;2024-03-08T14:11:04;17.35;;;11.73;;
85040;SDS011;75367;52.010;4.358;2024-03-08T14:13:49;15.18;;;11.45;;
85040;SDS011;75367;52.010;4.358;2024-03-08T14:16:14;15.13;;;10.35;;
85040;SDS011;75367;52.010;4.358;2024-03-08T14:18:40;19.23;;;15.35;;
85040;SDS011;75367;52.010;4.358;2024-03-08T14:21:05;17.20;;;12.57;;
85040;SDS011;75367;52.010;4.358;2024-03-08T14:23:33;18.85;;;13.68;;
85040;SDS011;75367;52.010;4.358;2024-03-08T14:25:59;19.25;;;16.65;;
85040;SDS011;75367;52.010;4.358;2024-03-08T14:28:24;19.05;;;13.23;;
85040;SDS011;75367;52.010;4.358;2024-03-08T14:30:52;22.35;;;15.38;;